sensor_id;sensor_type;location;lat;lon;timestamp;P1;durP1;ratioP1;P2;durP2;ratioP2
819;SDS011;392;48.838;2.322;2022-07-23T00:00:47;23.40;;;21.30;;
819;SDS011;392;48.838;2.322;2022-07-23T00:03:15;23.13;;;21.10;;
819;SDS011;392;48.838;2.322;2022-07-23T00:05:42;24.20;;;22.07;;
819;SDS011;392;48.838;2.322;2022-07-23T00:08:10;25.50;;;22.87;;
819;SDS011;392;48.838;2.322;2022-07-23T00:10:38;26.27;;;23.87;;
819;SDS011;392;48.838;2.322;2022-07-23T00:13:05;26.40;;;23.90;;
819;SDS011;392;48.838;2.322;2022-07-23T00:15:33;24.43;;;22.20;;
819;SDS011;392;48.838;2.322;2022-07-23T00:18:00;22.83;;;20.53;;
819;SDS011;392;48.838;2.322;2022-07-23T00:20:28;23.77;;;21.40;;
819;SDS011;392;48.838;2.322;2022-07-23T00:22:56;22.77;;;20.57;;
819;SDS011;392;48.838;2.322;2022-07-23T00:25:23;22.60;;;20.60;;
819;SDS011;392;48.838;2.322;2022-07-23T00:27:52;22.73;;;20.77;;
819;SDS011;392;48.838;2.322;2022-07-23T00:30:20;21.53;;;19.70;;
819;SDS011;392;48.838;2.322;2022-07-23T00:32:48;22.93;;;20.77;;
819;SDS011;392;48.838;2.322;2022-07-23T00:35:19;22.67;;;20.67;;
819;SDS011;392;48.838;2.322;2022-07-23T00:37:47;24.77;;;22.87;;
819;SDS011;392;48.838;2.322;2022-07-23T00:40:15;23.33;;;21.33;;
819;SDS011;392;48.838;2.322;2022-07-23T00:42:42;22.07;;;20.17;;
819;SDS011;392;48.838;2.322;2022-07-23T00:45:11;24.13;;;21.97;;
819;SDS011;392;48.838;2.322;2022-07-23T00:47:39;24.40;;;22.20;;
819;SDS011;392;48.838;2.322;2022-07-23T00:50:07;24.37;;;22.17;;
819;SDS011;392;48.838;2.322;2022-07-23T00:52:36;23.37;;;21.17;;
819;SDS011;392;48.838;2.322;2022-07-23T00:55:06;25.40;;;23.23;;
819;SDS011;392;48.838;2.322;2022-07-23T00:57:36;27.37;;;24.97;;
819;SDS011;392;48.838;2.322;2022-07-23T01:00:04;26.77;;;24.37;;
819;SDS011;392;48.838;2.322;2022-07-23T01:02:37;25.07;;;22.83;;
819;SDS011;392;48.838;2.322;2022-07-23T01:05:06;27.37;;;25.07;;
819;SDS011;392;48.838;2.322;2022-07-23T01:07:34;27.93;;;25.43;;
819;SDS011;392;48.838;2.322;2022-07-23T01:10:02;24.67;;;22.60;;
819;SDS011;392;48.838;2.322;2022-07-23T01:12:51;25.70;;;23.50;;
819;SDS011;392;48.838;2.322;2022-07-23T01:15:18;25.10;;;22.80;;
819;SDS011;392;48.838;2.322;2022-07-23T01:17:47;25.70;;;23.50;;
819;SDS011;392;48.838;2.322;2022-07-23T01:20:14;25.87;;;23.33;;
819;SDS011;392;48.838;2.322;2022-07-23T01:22:43;24.67;;;22.60;;
819;SDS011;392;48.838;2.322;2022-07-23T01:25:12;27.43;;;25.03;;
819;SDS011;392;48.838;2.322;2022-07-23T01:27:46;25.97;;;23.47;;
819;SDS011;392;48.838;2.322;2022-07-23T01:30:14;25.27;;;22.97;;
819;SDS011;392;48.838;2.322;2022-07-23T01:32:42;24.20;;;22.10;;
819;SDS011;392;48.838;2.322;2022-07-23T01:35:09;26.10;;;23.70;;
819;SDS011;392;48.838;2.322;2022-07-23T01:37:37;25.93;;;23.67;;
819;SDS011;392;48.838;2.322;2022-07-23T01:40:08;25.40;;;22.83;;
819;SDS011;392;48.838;2.322;2022-07-23T01:42:36;23.77;;;21.47;;
819;SDS011;392;48.838;2.322;2022-07-23T01:45:04;24.77;;;22.50;;
819;SDS011;392;48.838;2.322;2022-07-23T01:47:33;24.70;;;22.30;;
819;SDS011;392;48.838;2.322;2022-07-23T01:50:01;27.07;;;24.50;;
819;SDS011;392;48.838;2.322;2022-07-23T01:52:47;27.40;;;24.80;;
819;SDS011;392;48.838;2.322;2022-07-23T01:55:16;26.73;;;24.13;;
819;SDS011;392;48.838;2.322;2022-07-23T01:57:43;25.87;;;23.57;;
819;SDS011;392;48.838;2.322;2022-07-23T02:00:12;23.40;;;21.23;;
819;SDS011;392;48.838;2.322;2022-07-23T02:02:45;26.23;;;23.83;;
819;SDS011;392;48.838;2.322;2022-07-23T02:05:12;26.57;;;23.97;;
819;SDS011;392;48.838;2.322;2022-07-23T02:07:39;27.90;;;25.20;;
819;SDS011;392;48.838;2.322;2022-07-23T02:10:07;24.07;;;21.77;;
819;SDS011;392;48.838;2.322;2022-07-23T02:12:38;23.47;;;21.47;;
819;SDS011;392;48.838;2.322;2022-07-23T02:15:06;23.13;;;21.03;;
819;SDS011;392;48.838;2.322;2022-07-23T02:17:34;21.23;;;19.27;;
819;SDS011;392;48.838;2.322;2022-07-23T02:20:02;25.97;;;23.57;;
819;SDS011;392;48.838;2.322;2022-07-23T02:22:30;23.00;;;20.73;;
819;SDS011;392;48.838;2.322;2022-07-23T02:24:57;23.93;;;21.73;;
819;SDS011;392;48.838;2.322;2022-07-23T02:27:25;21.63;;;19.63;;
819;SDS011;392;48.838;2.322;2022-07-23T02:29:55;20.97;;;19.17;;
819;SDS011;392;48.838;2.322;2022-07-23T02:32:22;21.20;;;19.20;;
819;SDS011;392;48.838;2.322;2022-07-23T02:34:50;21.23;;;19.17;;
819;SDS011;392;48.838;2.322;2022-07-23T02:37:19;19.40;;;17.60;;
819;SDS011;392;48.838;2.322;2022-07-23T02:39:47;21.40;;;19.30;;
819;SDS011;392;48.838;2.322;2022-07-23T02:42:14;20.13;;;18.40;;
819;SDS011;392;48.838;2.322;2022-07-23T02:44:42;18.10;;;16.60;;
819;SDS011;392;48.838;2.322;2022-07-23T02:47:11;19.40;;;17.60;;
819;SDS011;392;48.838;2.322;2022-07-23T02:49:38;20.23;;;18.43;;
819;SDS011;392;48.838;2.322;2022-07-23T02:52:07;20.43;;;18.43;;
819;SDS011;392;48.838;2.322;2022-07-23T02:54:35;17.30;;;15.90;;
819;SDS011;392;48.838;2.322;2022-07-23T02:57:03;18.10;;;16.50;;
819;SDS011;392;48.838;2.322;2022-07-23T02:59:31;20.60;;;18.40;;
819;SDS011;392;48.838;2.322;2022-07-23T03:01:58;17.57;;;16.00;;
819;SDS011;392;48.838;2.322;2022-07-23T03:04:28;19.53;;;17.73;;
819;SDS011;392;48.838;2.322;2022-07-23T03:06:55;20.50;;;18.80;;
819;SDS011;392;48.838;2.322;2022-07-23T03:09:24;18.63;;;16.90;;
819;SDS011;392;48.838;2.322;2022-07-23T03:11:51;19.77;;;18.00;;
819;SDS011;392;48.838;2.322;2022-07-23T03:14:19;20.07;;;18.07;;
819;SDS011;392;48.838;2.322;2022-07-23T03:16:46;21.10;;;19.20;;
819;SDS011;392;48.838;2.322;2022-07-23T03:19:15;21.47;;;19.67;;
819;SDS011;392;48.838;2.322;2022-07-23T03:21:44;23.10;;;21.10;;
819;SDS011;392;48.838;2.322;2022-07-23T03:24:12;22.53;;;20.50;;
819;SDS011;392;48.838;2.322;2022-07-23T03:26:39;22.20;;;20.20;;
819;SDS011;392;48.838;2.322;2022-07-23T03:29:07;21.47;;;19.50;;
819;SDS011;392;48.838;2.322;2022-07-23T03:31:34;21.03;;;19.03;;
819;SDS011;392;48.838;2.322;2022-07-23T03:34:02;22.40;;;20.33;;
819;SDS011;392;48.838;2.322;2022-07-23T03:36:30;25.33;;;22.93;;
819;SDS011;392;48.838;2.322;2022-07-23T03:38:59;23.83;;;21.53;;
819;SDS011;392;48.838;2.322;2022-07-23T03:41:26;22.50;;;20.50;;
819;SDS011;392;48.838;2.322;2022-07-23T03:43:53;20.77;;;18.97;;
819;SDS011;392;48.838;2.322;2022-07-23T03:46:21;18.70;;;17.00;;
819;SDS011;392;48.838;2.322;2022-07-23T03:48:48;20.30;;;18.57;;
819;SDS011;392;48.838;2.322;2022-07-23T03:51:15;20.17;;;18.20;;
819;SDS011;392;48.838;2.322;2022-07-23T03:53:42;19.13;;;17.43;;
819;SDS011;392;48.838;2.322;2022-07-23T03:56:11;21.67;;;19.47;;
819;SDS011;392;48.838;2.322;2022-07-23T03:58:38;20.63;;;18.73;;
819;SDS011;392;48.838;2.322;2022-07-23T04:01:06;19.77;;;17.73;;
819;SDS011;392;48.838;2.322;2022-07-23T04:03:33;18.63;;;16.77;;
819;SDS011;392;48.838;2.322;2022-07-23T04:06:00;20.73;;;18.83;;
819;SDS011;392;48.838;2.322;2022-07-23T04:08:29;20.30;;;18.40;;
819;SDS011;392;48.838;2.322;2022-07-23T04:10:59;18.60;;;16.87;;
819;SDS011;392;48.838;2.322;2022-07-23T04:13:27;19.47;;;17.50;;
819;SDS011;392;48.838;2.322;2022-07-23T04:15:55;19.03;;;17.23;;
819;SDS011;392;48.838;2.322;2022-07-23T04:18:22;19.37;;;17.60;;
819;SDS011;392;48.838;2.322;2022-07-23T04:20:59;17.53;;;16.10;;
819;SDS011;392;48.838;2.322;2022-07-23T04:23:27;16.53;;;14.97;;
819;SDS011;392;48.838;2.322;2022-07-23T04:25:54;18.43;;;16.73;;
819;SDS011;392;48.838;2.322;2022-07-23T04:28:21;19.23;;;16.90;;
819;SDS011;392;48.838;2.322;2022-07-23T04:30:50;17.57;;;15.97;;
819;SDS011;392;48.838;2.322;2022-07-23T04:33:17;19.10;;;17.30;;
819;SDS011;392;48.838;2.322;2022-07-23T04:35:47;19.00;;;17.30;;
819;SDS011;392;48.838;2.322;2022-07-23T04:38:19;17.27;;;15.63;;
819;SDS011;392;48.838;2.322;2022-07-23T04:40:49;18.60;;;16.90;;
819;SDS011;392;48.838;2.322;2022-07-23T04:43:16;18.00;;;16.43;;
819;SDS011;392;48.838;2.322;2022-07-23T04:45:46;18.60;;;17.00;;
819;SDS011;392;48.838;2.322;2022-07-23T04:48:15;19.17;;;16.90;;
819;SDS011;392;48.838;2.322;2022-07-23T04:50:42;17.57;;;15.77;;
819;SDS011;392;48.838;2.322;2022-07-23T04:53:16;16.53;;;15.10;;
819;SDS011;392;48.838;2.322;2022-07-23T04:55:46;16.87;;;15.53;;
819;SDS011;392;48.838;2.322;2022-07-23T04:58:14;17.30;;;15.90;;
819;SDS011;392;48.838;2.322;2022-07-23T05:00:41;16.03;;;14.53;;
819;SDS011;392;48.838;2.322;2022-07-23T05:03:09;17.13;;;15.43;;
819;SDS011;392;48.838;2.322;2022-07-23T05:05:38;17.43;;;15.93;;
819;SDS011;392;48.838;2.322;2022-07-23T05:08:13;16.07;;;14.67;;
819;SDS011;392;48.838;2.322;2022-07-23T05:10:42;15.30;;;14.00;;
819;SDS011;392;48.838;2.322;2022-07-23T05:13:10;18.40;;;16.80;;
819;SDS011;392;48.838;2.322;2022-07-23T05:15:37;18.17;;;16.67;;
819;SDS011;392;48.838;2.322;2022-07-23T05:18:05;18.67;;;16.97;;
819;SDS011;392;48.838;2.322;2022-07-23T05:20:32;16.20;;;14.80;;
819;SDS011;392;48.838;2.322;2022-07-23T05:23:01;15.27;;;14.07;;
819;SDS011;392;48.838;2.322;2022-07-23T05:25:28;16.17;;;14.77;;
819;SDS011;392;48.838;2.322;2022-07-23T05:27:56;20.60;;;15.90;;
819;SDS011;392;48.838;2.322;2022-07-23T05:30:23;17.17;;;15.37;;
819;SDS011;392;48.838;2.322;2022-07-23T05:32:56;15.43;;;14.13;;
819;SDS011;392;48.838;2.322;2022-07-23T05:35:23;17.50;;;16.00;;
819;SDS011;392;48.838;2.322;2022-07-23T05:38:07;15.57;;;14.13;;
819;SDS011;392;48.838;2.322;2022-07-23T05:40:35;17.97;;;16.27;;
819;SDS011;392;48.838;2.322;2022-07-23T05:43:02;19.17;;;17.47;;
819;SDS011;392;48.838;2.322;2022-07-23T05:45:30;17.50;;;16.10;;
819;SDS011;392;48.838;2.322;2022-07-23T05:47:57;16.57;;;15.17;;
819;SDS011;392;48.838;2.322;2022-07-23T05:50:31;16.50;;;15.10;;
819;SDS011;392;48.838;2.322;2022-07-23T05:53:06;18.93;;;17.17;;
819;SDS011;392;48.838;2.322;2022-07-23T05:55:49;20.43;;;18.50;;
819;SDS011;392;48.838;2.322;2022-07-23T05:58:16;21.30;;;19.37;;
819;SDS011;392;48.838;2.322;2022-07-23T06:00:44;21.73;;;19.77;;
819;SDS011;392;48.838;2.322;2022-07-23T06:03:12;18.07;;;16.40;;
819;SDS011;392;48.838;2.322;2022-07-23T06:05:39;19.80;;;18.10;;
819;SDS011;392;48.838;2.322;2022-07-23T06:08:09;24.97;;;22.27;;
819;SDS011;392;48.838;2.322;2022-07-23T06:10:36;22.90;;;20.70;;
819;SDS011;392;48.838;2.322;2022-07-23T06:13:04;22.80;;;20.77;;
819;SDS011;392;48.838;2.322;2022-07-23T06:15:31;26.60;;;24.00;;
819;SDS011;392;48.838;2.322;2022-07-23T06:17:59;26.10;;;23.40;;
819;SDS011;392;48.838;2.322;2022-07-23T06:20:26;25.50;;;23.07;;
819;SDS011;392;48.838;2.322;2022-07-23T06:22:56;27.00;;;24.20;;
819;SDS011;392;48.838;2.322;2022-07-23T06:25:25;23.17;;;20.90;;
819;SDS011;392;48.838;2.322;2022-07-23T06:27:52;25.37;;;22.97;;
819;SDS011;392;48.838;2.322;2022-07-23T06:30:20;23.70;;;21.50;;
819;SDS011;392;48.838;2.322;2022-07-23T06:32:48;27.73;;;25.13;;
819;SDS011;392;48.838;2.322;2022-07-23T06:35:15;26.27;;;23.57;;
819;SDS011;392;48.838;2.322;2022-07-23T06:37:45;29.87;;;26.43;;
819;SDS011;392;48.838;2.322;2022-07-23T06:40:13;26.30;;;23.60;;
819;SDS011;392;48.838;2.322;2022-07-23T06:42:41;28.43;;;25.50;;
819;SDS011;392;48.838;2.322;2022-07-23T06:45:15;28.63;;;25.83;;
819;SDS011;392;48.838;2.322;2022-07-23T06:47:42;28.00;;;25.17;;
819;SDS011;392;48.838;2.322;2022-07-23T06:50:10;29.50;;;26.40;;
819;SDS011;392;48.838;2.322;2022-07-23T06:52:37;32.83;;;29.53;;
819;SDS011;392;48.838;2.322;2022-07-23T06:55:05;34.20;;;30.13;;
819;SDS011;392;48.838;2.322;2022-07-23T06:57:33;29.17;;;25.90;;
819;SDS011;392;48.838;2.322;2022-07-23T07:00:02;27.07;;;24.13;;
819;SDS011;392;48.838;2.322;2022-07-23T07:02:30;27.83;;;25.03;;
819;SDS011;392;48.838;2.322;2022-07-23T07:04:58;30.33;;;27.33;;
819;SDS011;392;48.838;2.322;2022-07-23T07:07:25;33.17;;;29.67;;
819;SDS011;392;48.838;2.322;2022-07-23T07:09:52;28.70;;;25.60;;
819;SDS011;392;48.838;2.322;2022-07-23T07:12:20;34.87;;;31.07;;
819;SDS011;392;48.838;2.322;2022-07-23T07:14:47;31.57;;;28.17;;
819;SDS011;392;48.838;2.322;2022-07-23T07:17:16;33.93;;;30.60;;
819;SDS011;392;48.838;2.322;2022-07-23T07:19:43;33.77;;;30.23;;
819;SDS011;392;48.838;2.322;2022-07-23T07:22:11;34.37;;;30.40;;
819;SDS011;392;48.838;2.322;2022-07-23T07:24:38;32.40;;;29.10;;
819;SDS011;392;48.838;2.322;2022-07-23T07:27:06;34.00;;;30.40;;
819;SDS011;392;48.838;2.322;2022-07-23T07:29:33;37.10;;;33.10;;
819;SDS011;392;48.838;2.322;2022-07-23T07:32:00;35.23;;;31.47;;
819;SDS011;392;48.838;2.322;2022-07-23T07:34:29;29.50;;;26.60;;
819;SDS011;392;48.838;2.322;2022-07-23T07:36:56;34.47;;;30.97;;
819;SDS011;392;48.838;2.322;2022-07-23T07:39:24;38.27;;;33.27;;
819;SDS011;392;48.838;2.322;2022-07-23T07:41:51;33.03;;;29.67;;
819;SDS011;392;48.838;2.322;2022-07-23T07:44:18;33.67;;;29.37;;
819;SDS011;392;48.838;2.322;2022-07-23T07:46:46;36.90;;;32.90;;
819;SDS011;392;48.838;2.322;2022-07-23T07:49:13;34.77;;;31.27;;
819;SDS011;392;48.838;2.322;2022-07-23T07:51:43;35.80;;;32.00;;
819;SDS011;392;48.838;2.322;2022-07-23T07:54:11;33.03;;;29.60;;
819;SDS011;392;48.838;2.322;2022-07-23T07:56:38;30.90;;;27.77;;
819;SDS011;392;48.838;2.322;2022-07-23T07:59:06;35.07;;;30.00;;
819;SDS011;392;48.838;2.322;2022-07-23T08:01:33;31.33;;;27.80;;
819;SDS011;392;48.838;2.322;2022-07-23T08:04:00;34.83;;;31.13;;
819;SDS011;392;48.838;2.322;2022-07-23T08:06:28;32.27;;;29.00;;
819;SDS011;392;48.838;2.322;2022-07-23T08:08:56;31.23;;;27.90;;
819;SDS011;392;48.838;2.322;2022-07-23T08:11:24;32.10;;;28.67;;
819;SDS011;392;48.838;2.322;2022-07-23T08:13:51;29.53;;;26.67;;
819;SDS011;392;48.838;2.322;2022-07-23T08:16:18;31.87;;;28.77;;
819;SDS011;392;48.838;2.322;2022-07-23T08:18:46;31.03;;;27.90;;
819;SDS011;392;48.838;2.322;2022-07-23T08:21:13;26.80;;;24.13;;
819;SDS011;392;48.838;2.322;2022-07-23T08:23:40;28.77;;;25.97;;
819;SDS011;392;48.838;2.322;2022-07-23T08:26:09;31.40;;;28.20;;
819;SDS011;392;48.838;2.322;2022-07-23T08:28:37;33.20;;;29.80;;
819;SDS011;392;48.838;2.322;2022-07-23T08:31:04;35.10;;;29.47;;
819;SDS011;392;48.838;2.322;2022-07-23T08:33:31;31.53;;;28.30;;
819;SDS011;392;48.838;2.322;2022-07-23T08:35:59;32.87;;;29.60;;
819;SDS011;392;48.838;2.322;2022-07-23T08:38:27;32.23;;;28.83;;
819;SDS011;392;48.838;2.322;2022-07-23T08:40:55;28.60;;;25.87;;
819;SDS011;392;48.838;2.322;2022-07-23T08:43:25;32.03;;;28.60;;
819;SDS011;392;48.838;2.322;2022-07-23T08:45:55;35.67;;;28.47;;
819;SDS011;392;48.838;2.322;2022-07-23T08:48:25;31.97;;;28.83;;
819;SDS011;392;48.838;2.322;2022-07-23T08:50:56;33.40;;;30.00;;
819;SDS011;392;48.838;2.322;2022-07-23T08:53:27;31.57;;;28.20;;
819;SDS011;392;48.838;2.322;2022-07-23T08:55:56;32.17;;;27.20;;
819;SDS011;392;48.838;2.322;2022-07-23T08:58:28;30.97;;;27.87;;
819;SDS011;392;48.838;2.322;2022-07-23T09:00:56;31.97;;;28.87;;
819;SDS011;392;48.838;2.322;2022-07-23T09:03:25;27.20;;;24.40;;
819;SDS011;392;48.838;2.322;2022-07-23T09:05:55;29.53;;;26.43;;
819;SDS011;392;48.838;2.322;2022-07-23T09:08:23;29.87;;;26.80;;
819;SDS011;392;48.838;2.322;2022-07-23T09:10:53;31.30;;;28.13;;
819;SDS011;392;48.838;2.322;2022-07-23T09:13:31;28.43;;;25.47;;
819;SDS011;392;48.838;2.322;2022-07-23T09:16:02;28.20;;;25.40;;
819;SDS011;392;48.838;2.322;2022-07-23T09:18:35;28.20;;;25.50;;
819;SDS011;392;48.838;2.322;2022-07-23T09:21:10;25.30;;;23.10;;
819;SDS011;392;48.838;2.322;2022-07-23T09:23:42;27.33;;;24.60;;
819;SDS011;392;48.838;2.322;2022-07-23T09:26:17;27.80;;;25.10;;
819;SDS011;392;48.838;2.322;2022-07-23T09:28:59;26.83;;;24.33;;
819;SDS011;392;48.838;2.322;2022-07-23T09:31:33;28.70;;;25.97;;
819;SDS011;392;48.838;2.322;2022-07-23T09:34:10;27.10;;;24.60;;
819;SDS011;392;48.838;2.322;2022-07-23T09:36:42;27.07;;;24.33;;
819;SDS011;392;48.838;2.322;2022-07-23T09:39:10;28.00;;;25.53;;
819;SDS011;392;48.838;2.322;2022-07-23T09:41:40;31.10;;;28.10;;
819;SDS011;392;48.838;2.322;2022-07-23T09:44:12;30.93;;;28.03;;
819;SDS011;392;48.838;2.322;2022-07-23T09:46:43;29.13;;;26.30;;
819;SDS011;392;48.838;2.322;2022-07-23T09:49:13;26.20;;;23.87;;
819;SDS011;392;48.838;2.322;2022-07-23T09:51:43;26.47;;;24.17;;
819;SDS011;392;48.838;2.322;2022-07-23T09:57:04;29.23;;;26.70;;
819;SDS011;392;48.838;2.322;2022-07-23T09:59:37;29.83;;;27.53;;
819;SDS011;392;48.838;2.322;2022-07-23T10:02:07;30.70;;;28.07;;
819;SDS011;392;48.838;2.322;2022-07-23T10:04:53;32.57;;;29.40;;
819;SDS011;392;48.838;2.322;2022-07-23T10:07:30;29.80;;;27.13;;
819;SDS011;392;48.838;2.322;2022-07-23T10:10:39;30.97;;;27.93;;
819;SDS011;392;48.838;2.322;2022-07-23T10:13:36;32.30;;;29.40;;
819;SDS011;392;48.838;2.322;2022-07-23T10:16:20;30.60;;;28.00;;
819;SDS011;392;48.838;2.322;2022-07-23T10:18:48;30.90;;;28.30;;
819;SDS011;392;48.838;2.322;2022-07-23T10:21:18;27.40;;;25.00;;
819;SDS011;392;48.838;2.322;2022-07-23T10:23:57;31.17;;;28.47;;
819;SDS011;392;48.838;2.322;2022-07-23T10:26:41;32.03;;;29.27;;
819;SDS011;392;48.838;2.322;2022-07-23T10:29:21;32.60;;;29.70;;
819;SDS011;392;48.838;2.322;2022-07-23T10:32:08;28.50;;;26.10;;
819;SDS011;392;48.838;2.322;2022-07-23T10:34:50;31.03;;;28.43;;
819;SDS011;392;48.838;2.322;2022-07-23T10:37:26;27.47;;;25.07;;
819;SDS011;392;48.838;2.322;2022-07-23T10:40:08;31.17;;;28.30;;
819;SDS011;392;48.838;2.322;2022-07-23T10:42:38;28.00;;;25.50;;
819;SDS011;392;48.838;2.322;2022-07-23T10:45:26;30.73;;;28.13;;
819;SDS011;392;48.838;2.322;2022-07-23T10:48:14;28.17;;;25.70;;
819;SDS011;392;48.838;2.322;2022-07-23T10:53:55;26.93;;;24.63;;
819;SDS011;392;48.838;2.322;2022-07-23T11:02:45;25.23;;;23.17;;
819;SDS011;392;48.838;2.322;2022-07-23T11:05:15;26.70;;;24.50;;
819;SDS011;392;48.838;2.322;2022-07-23T11:10:43;26.20;;;23.80;;
819;SDS011;392;48.838;2.322;2022-07-23T11:13:26;24.90;;;22.57;;
819;SDS011;392;48.838;2.322;2022-07-23T11:16:05;26.37;;;24.10;;
819;SDS011;392;48.838;2.322;2022-07-23T11:21:45;25.40;;;23.20;;
819;SDS011;392;48.838;2.322;2022-07-23T11:24:18;24.90;;;22.77;;
819;SDS011;392;48.838;2.322;2022-07-23T11:26:48;24.50;;;22.40;;
819;SDS011;392;48.838;2.322;2022-07-23T11:32:32;26.83;;;24.53;;
819;SDS011;392;48.838;2.322;2022-07-23T11:35:18;24.87;;;22.77;;
819;SDS011;392;48.838;2.322;2022-07-23T11:37:52;26.70;;;24.50;;
819;SDS011;392;48.838;2.322;2022-07-23T11:40:24;33.20;;;30.43;;
819;SDS011;392;48.838;2.322;2022-07-23T11:42:53;30.43;;;27.73;;
819;SDS011;392;48.838;2.322;2022-07-23T11:45:25;23.83;;;21.80;;
819;SDS011;392;48.838;2.322;2022-07-23T11:47:57;24.30;;;22.50;;
819;SDS011;392;48.838;2.322;2022-07-23T11:50:24;24.60;;;22.53;;
819;SDS011;392;48.838;2.322;2022-07-23T11:52:53;25.40;;;23.30;;
819;SDS011;392;48.838;2.322;2022-07-23T11:55:21;25.50;;;23.30;;
819;SDS011;392;48.838;2.322;2022-07-23T11:57:50;33.63;;;30.67;;
819;SDS011;392;48.838;2.322;2022-07-23T12:00:20;27.50;;;25.27;;
819;SDS011;392;48.838;2.322;2022-07-23T12:02:49;28.83;;;26.30;;
819;SDS011;392;48.838;2.322;2022-07-23T12:05:20;26.20;;;24.00;;
819;SDS011;392;48.838;2.322;2022-07-23T12:07:50;25.33;;;23.33;;
819;SDS011;392;48.838;2.322;2022-07-23T12:10:20;25.00;;;22.80;;
819;SDS011;392;48.838;2.322;2022-07-23T12:12:51;24.80;;;22.93;;
819;SDS011;392;48.838;2.322;2022-07-23T12:15:21;24.57;;;22.70;;
819;SDS011;392;48.838;2.322;2022-07-23T12:17:51;25.50;;;23.60;;
819;SDS011;392;48.838;2.322;2022-07-23T12:20:21;23.60;;;21.80;;
819;SDS011;392;48.838;2.322;2022-07-23T12:22:52;24.53;;;22.47;;
819;SDS011;392;48.838;2.322;2022-07-23T12:25:26;23.93;;;21.93;;
819;SDS011;392;48.838;2.322;2022-07-23T12:28:00;23.60;;;21.70;;
819;SDS011;392;48.838;2.322;2022-07-23T12:30:31;23.27;;;21.37;;
819;SDS011;392;48.838;2.322;2022-07-23T12:33:01;30.00;;;27.60;;
819;SDS011;392;48.838;2.322;2022-07-23T12:35:30;23.93;;;22.23;;
819;SDS011;392;48.838;2.322;2022-07-23T12:38:04;24.77;;;23.00;;
819;SDS011;392;48.838;2.322;2022-07-23T12:40:35;25.03;;;23.20;;
819;SDS011;392;48.838;2.322;2022-07-23T12:43:08;25.70;;;23.80;;
819;SDS011;392;48.838;2.322;2022-07-23T12:45:46;25.57;;;23.77;;
819;SDS011;392;48.838;2.322;2022-07-23T12:48:23;25.77;;;23.97;;
819;SDS011;392;48.838;2.322;2022-07-23T12:50:55;24.20;;;22.50;;
819;SDS011;392;48.838;2.322;2022-07-23T12:53:25;24.10;;;22.30;;
819;SDS011;392;48.838;2.322;2022-07-23T12:56:04;24.17;;;22.37;;
819;SDS011;392;48.838;2.322;2022-07-23T12:58:40;25.23;;;23.63;;
819;SDS011;392;48.838;2.322;2022-07-23T13:01:21;25.20;;;23.50;;
819;SDS011;392;48.838;2.322;2022-07-23T13:04:00;23.97;;;22.27;;
819;SDS011;392;48.838;2.322;2022-07-23T13:06:31;24.63;;;23.10;;
819;SDS011;392;48.838;2.322;2022-07-23T13:09:00;25.80;;;23.90;;
819;SDS011;392;48.838;2.322;2022-07-23T13:11:31;23.97;;;22.47;;
819;SDS011;392;48.838;2.322;2022-07-23T13:13:59;25.43;;;23.90;;
819;SDS011;392;48.838;2.322;2022-07-23T13:16:27;24.63;;;23.03;;
819;SDS011;392;48.838;2.322;2022-07-23T13:18:56;25.50;;;23.90;;
819;SDS011;392;48.838;2.322;2022-07-23T13:21:24;24.97;;;23.37;;
819;SDS011;392;48.838;2.322;2022-07-23T13:23:53;24.37;;;22.77;;
819;SDS011;392;48.838;2.322;2022-07-23T13:26:21;24.70;;;23.00;;
819;SDS011;392;48.838;2.322;2022-07-23T13:28:50;25.83;;;23.77;;
819;SDS011;392;48.838;2.322;2022-07-23T13:31:17;25.47;;;23.70;;
819;SDS011;392;48.838;2.322;2022-07-23T13:33:46;23.93;;;22.27;;
819;SDS011;392;48.838;2.322;2022-07-23T13:36:13;23.33;;;21.70;;
819;SDS011;392;48.838;2.322;2022-07-23T13:38:41;22.90;;;21.37;;
819;SDS011;392;48.838;2.322;2022-07-23T13:41:10;23.23;;;21.73;;
819;SDS011;392;48.838;2.322;2022-07-23T13:43:37;22.77;;;21.17;;
819;SDS011;392;48.838;2.322;2022-07-23T13:46:06;20.53;;;18.93;;
819;SDS011;392;48.838;2.322;2022-07-23T13:48:33;21.43;;;19.83;;
819;SDS011;392;48.838;2.322;2022-07-23T13:51:00;22.30;;;20.70;;
819;SDS011;392;48.838;2.322;2022-07-23T13:53:28;20.47;;;18.77;;
819;SDS011;392;48.838;2.322;2022-07-23T13:55:55;20.93;;;19.43;;
819;SDS011;392;48.838;2.322;2022-07-23T13:58:23;21.50;;;20.00;;
819;SDS011;392;48.838;2.322;2022-07-23T14:00:51;21.73;;;20.13;;
819;SDS011;392;48.838;2.322;2022-07-23T14:03:22;19.87;;;18.47;;
819;SDS011;392;48.838;2.322;2022-07-23T14:05:49;20.37;;;18.97;;
819;SDS011;392;48.838;2.322;2022-07-23T14:08:17;20.93;;;19.47;;
819;SDS011;392;48.838;2.322;2022-07-23T14:10:44;19.53;;;18.03;;
819;SDS011;392;48.838;2.322;2022-07-23T14:13:11;19.67;;;18.20;;
819;SDS011;392;48.838;2.322;2022-07-23T14:15:39;19.40;;;18.03;;
819;SDS011;392;48.838;2.322;2022-07-23T14:18:06;18.73;;;17.43;;
819;SDS011;392;48.838;2.322;2022-07-23T14:20:35;21.93;;;20.17;;
819;SDS011;392;48.838;2.322;2022-07-23T14:23:02;21.67;;;20.03;;
819;SDS011;392;48.838;2.322;2022-07-23T14:25:30;21.10;;;19.50;;
819;SDS011;392;48.838;2.322;2022-07-23T14:27:57;19.33;;;17.93;;
819;SDS011;392;48.838;2.322;2022-07-23T14:30:24;18.50;;;17.10;;
819;SDS011;392;48.838;2.322;2022-07-23T14:33:12;18.40;;;17.10;;
819;SDS011;392;48.838;2.322;2022-07-23T14:35:41;19.30;;;17.90;;
819;SDS011;392;48.838;2.322;2022-07-23T14:38:09;19.20;;;17.70;;
819;SDS011;392;48.838;2.322;2022-07-23T14:40:36;19.63;;;18.23;;
819;SDS011;392;48.838;2.322;2022-07-23T14:43:04;18.53;;;17.17;;
819;SDS011;392;48.838;2.322;2022-07-23T14:45:31;18.97;;;17.67;;
819;SDS011;392;48.838;2.322;2022-07-23T14:48:04;19.10;;;17.60;;
819;SDS011;392;48.838;2.322;2022-07-23T14:50:32;18.73;;;17.53;;
819;SDS011;392;48.838;2.322;2022-07-23T14:53:01;17.77;;;16.57;;
819;SDS011;392;48.838;2.322;2022-07-23T14:55:28;18.90;;;17.47;;
819;SDS011;392;48.838;2.322;2022-07-23T14:57:57;18.30;;;17.10;;
819;SDS011;392;48.838;2.322;2022-07-23T15:00:25;17.93;;;16.57;;
819;SDS011;392;48.838;2.322;2022-07-23T15:02:53;19.70;;;18.30;;
819;SDS011;392;48.838;2.322;2022-07-23T15:05:20;19.20;;;17.90;;
819;SDS011;392;48.838;2.322;2022-07-23T15:07:48;19.07;;;17.73;;
819;SDS011;392;48.838;2.322;2022-07-23T15:10:17;18.70;;;17.30;;
819;SDS011;392;48.838;2.322;2022-07-23T15:12:44;19.07;;;17.77;;
819;SDS011;392;48.838;2.322;2022-07-23T15:15:12;18.10;;;16.80;;
819;SDS011;392;48.838;2.322;2022-07-23T15:17:39;18.70;;;17.40;;
819;SDS011;392;48.838;2.322;2022-07-23T15:20:07;18.17;;;16.97;;
819;SDS011;392;48.838;2.322;2022-07-23T15:22:35;18.20;;;16.80;;
819;SDS011;392;48.838;2.322;2022-07-23T15:25:02;16.77;;;15.70;;
819;SDS011;392;48.838;2.322;2022-07-23T15:27:32;18.63;;;17.23;;
819;SDS011;392;48.838;2.322;2022-07-23T15:30:00;17.37;;;16.17;;
819;SDS011;392;48.838;2.322;2022-07-23T15:32:27;18.90;;;17.60;;
819;SDS011;392;48.838;2.322;2022-07-23T15:34:54;18.00;;;16.70;;
819;SDS011;392;48.838;2.322;2022-07-23T15:37:22;17.30;;;16.10;;
819;SDS011;392;48.838;2.322;2022-07-23T15:39:49;18.03;;;16.77;;
819;SDS011;392;48.838;2.322;2022-07-23T15:42:17;17.97;;;16.60;;
819;SDS011;392;48.838;2.322;2022-07-23T15:44:45;17.80;;;16.50;;
819;SDS011;392;48.838;2.322;2022-07-23T15:47:15;15.77;;;14.57;;
819;SDS011;392;48.838;2.322;2022-07-23T15:49:45;16.47;;;15.37;;
819;SDS011;392;48.838;2.322;2022-07-23T15:52:13;16.77;;;15.57;;